| Date | Time | Temp. (oF) | Dew Point (oF) | Rel. Hum. (%) | Press. (in.) | Wind Dir. | Wind Speed (mph) | Hourly Rainfall (in.) |
|
|---|---|---|---|---|---|---|---|---|---|
| 1 | 12/31 | 00:00 | 15 | 4 | 63 | 30.14 | WNW | 5 | 0.00 |
| 2 | 12/30 | 23:00 | 15 | 5 | 64 | 30.13 | WSW | 6 | 0.00 |
| 3 | 12/30 | 22:00 | 16 | 6 | 65 | 30.10 | W | 6 | 0.00 |
| 4 | 12/30 | 21:00 | 17 | 7 | 65 | 30.08 | S | 5 | 0.00 |
| 5 | 12/30 | 20:00 | 18 | 9 | 68 | 30.05 | W | 4 | 0.00 |
| 6 | 12/30 | 19:00 | 18 | 12 | 77 | 30.03 | WSW | 4 | 0.00 |
| 7 | 12/30 | 18:00 | 20 | 14 | 79 | 29.99 | W | 4 | 0.00 |
| 8 | 12/30 | 17:00 | 21 | 14 | 77 | 29.96 | WNW | 7 | 0.00 |
| 9 | 12/30 | 16:00 | 23 | 17 | 78 | 29.93 | WNW | 5 | 0.00 |
| 10 | 12/30 | 15:00 | 23 | 18 | 84 | 29.91 | NNW | 9 | 0.00 |
| 11 | 12/30 | 14:00 | 26 | 20 | 80 | 29.90 | NW | 3 | 0.00 |
| 12 | 12/30 | 13:00 | 24 | 20 | 86 | 29.91 | S | 2 | 0.00 |
| 13 | 12/30 | 12:00 | 22 | 18 | 86 | 29.96 | S | 6 | 0.00 |
| 14 | 12/30 | 11:00 | 20 | 17 | 89 | 30.02 | SSE | 2 | 0.01 |
| 15 | 12/30 | 10:00 | 18 | 16 | 92 | 30.06 | SSE | 4 | 0.00 |
| 16 | 12/30 | 09:00 | 17 | 15 | 95 | 30.08 | SSE | 4 | 0.01 |
| 17 | 12/30 | 08:00 | 16 | 15 | 96 | 30.10 | SE | 2 | 0.00 |
| 18 | 12/30 | 07:00 | 16 | 15 | 96 | 30.11 | SSE | 2 | 0.01 |
| 19 | 12/30 | 06:00 | 16 | 15 | 96 | 30.12 | SSE | 2 | 0.00 |
| 20 | 12/30 | 05:00 | 16 | 14 | 93 | 30.14 | S | 7 | 0.00 |
| 21 | 12/30 | 04:00 | 16 | 13 | 89 | 30.14 | S | 5 | 0.00 |
| 22 | 12/30 | 03:00 | 16 | 10 | 78 | 30.17 | S | 4 | 0.00 |
| 23 | 12/30 | 02:00 | 15 | 10 | 81 | 30.18 | ESE | 1 | 0.00 |
| 24 | 12/30 | 01:00 | 14 | 9 | 82 | 30.20 | ESE | 0 | 0.00 |